Time;durP1;ratioP1;P1;durP2;ratioP2;P2;SDS_P1;SDS_P2;PMS_P1;PMS_P2;Temp;Humidity;BMP_temperature;BMP_pressure;BME280_temperature;BME280_humidity;BME280_pressure;Samples;Min_cycle;Max_cycle;Signal;HPM_P1;HPM_P2
2023/04/14 00:00:19;;;;;;;;;;;9.10;91.90;;;;;;5102045;28;19912;-67
2023/04/14 00:02:45;;;;;;;;;;;9.10;91.90;;;;;;5107362;28;19923;-67
2023/04/14 00:05:10;;;;;;;;;;;9.10;92.00;;;;;;5108212;28;20006;-67
2023/04/14 00:07:36;;;;;;;;;;;9.10;92.00;;;;;;5107917;28;19998;-67
2023/04/14 00:10:01;;;;;;;;;;;9.00;91.90;;;;;;5106965;28;19988;-67
2023/04/14 00:12:27;;;;;;;;;;;9.00;92.00;;;;;;5106345;28;19950;-67
2023/04/14 00:14:52;;;;;;;;;;;9.00;92.00;;;;;;5107947;28;19912;-67
2023/04/14 00:17:18;;;;;;;;;;;9.00;92.00;;;;;;5108038;28;19916;-66
2023/04/14 00:19:43;;;;;;;;;;;9.00;92.10;;;;;;5108062;28;19919;-66
2023/04/14 00:22:09;;;;;;;;;;;9.00;92.00;;;;;;5107864;28;20400;-66
2023/04/14 00:24:42;;;;;;;;;;;9.00;92.00;;;;;;5107796;28;19918;-66
2023/04/14 00:27:10;;;;;;;;;;;8.90;92.00;;;;;;5106520;28;19912;-66
2023/04/14 00:29:39;;;;;;;;;;;8.90;92.00;;;;;;5105338;28;20319;-66
2023/04/14 00:32:05;;;;;;;;;;;8.90;92.00;;;;;;5087671;28;19912;-66
2023/04/14 00:34:31;;;;;;;;;;;8.90;92.00;;;;;;5091100;28;19920;-66
2023/04/14 00:36:56;;;;;;;;;;;8.80;92.00;;;;;;5107744;28;20615;-66
2023/04/14 00:39:22;;;;;;;;;;;8.90;92.00;;;;;;5107846;28;19912;-66
2023/04/14 00:41:47;;;;;;;;;;;8.80;92.00;;;;;;5107413;28;19914;-66
2023/04/14 00:44:13;;;;;;;;;;;8.80;92.00;;;;;;5105677;28;19951;-66
2023/04/14 00:46:39;;;;;;;;;;;8.80;92.00;;;;;;5108219;28;19974;-66
2023/04/14 00:49:05;;;;;;;;;;;8.80;92.00;;;;;;5107797;28;19912;-66
2023/04/14 00:51:31;;;;;;;;;;;8.80;92.00;;;;;;5107985;28;20303;-66
2023/04/14 00:53:56;;;;;;;;;;;8.80;92.00;;;;;;5106449;28;19916;-66
2023/04/14 00:56:23;;;;;;;;;;;8.80;92.00;;;;;;5106350;28;19922;-66
2023/04/14 00:58:50;;;;;;;;;;;8.80;92.00;;;;;;5107833;28;19984;-66
2023/04/14 01:01:16;;;;;;;;;;;8.70;92.00;;;;;;5107093;28;19957;-66
2023/04/14 01:03:42;;;;;;;;;;;8.70;92.00;;;;;;5107592;28;19912;-67
2023/04/14 01:06:07;;;;;;;;;;;8.70;92.00;;;;;;5107545;28;19972;-66
2023/04/14 01:08:33;;;;;;;;;;;8.70;92.00;;;;;;5107572;28;19920;-66
2023/04/14 01:11:08;;;;;;;;;;;8.70;92.00;;;;;;5106426;28;19926;-66
2023/04/14 01:13:52;;;;;;;;;;;8.60;92.10;;;;;;5107682;28;20284;-66
2023/04/14 01:16:20;;;;;;;;;;;8.60;92.00;;;;;;5107261;28;19968;-66
2023/04/14 01:18:50;;;;;;;;;;;8.60;92.10;;;;;;5107662;28;19908;-66
2023/04/14 01:21:21;;;;;;;;;;;8.60;92.10;;;;;;5107496;28;20418;-66
2023/04/14 01:24:00;;;;;;;;;;;8.60;92.10;;;;;;5107424;28;19911;-66
2023/04/14 01:26:28;;;;;;;;;;;8.50;92.10;;;;;;5110912;28;19911;-66
2023/04/14 01:29:20;;;;;;;;;;;8.50;92.00;;;;;;5111534;28;19907;-66
2023/04/14 01:31:46;;;;;;;;;;;8.50;92.00;;;;;;5076726;28;20611;-66
2023/04/14 01:34:18;;;;;;;;;;;8.50;92.00;;;;;;5091545;28;19957;-66
2023/04/14 01:36:49;;;;;;;;;;;8.40;92.00;;;;;;5111139;28;19962;-66
2023/04/14 01:39:18;;;;;;;;;;;8.40;92.00;;;;;;5110945;28;19938;-66
2023/04/14 01:41:46;;;;;;;;;;;8.40;92.00;;;;;;5110884;28;19912;-66
2023/04/14 01:44:13;;;;;;;;;;;8.40;92.00;;;;;;5110942;28;19921;-66
2023/04/14 01:46:40;;;;;;;;;;;8.40;92.10;;;;;;5110955;28;20011;-66
2023/04/14 01:49:05;;;;;;;;;;;8.40;92.00;;;;;;5110452;28;19918;-66
2023/04/14 01:51:32;;;;;;;;;;;8.40;92.00;;;;;;5110708;28;19923;-66
2023/04/14 01:53:59;;;;;;;;;;;8.40;92.00;;;;;;5109090;28;19918;-66
2023/04/14 01:56:25;;;;;;;;;;;8.40;92.00;;;;;;5110596;28;19983;-66
2023/04/14 01:58:52;;;;;;;;;;;8.40;92.00;;;;;;5110677;28;20452;-66
2023/04/14 02:01:18;;;;;;;;;;;8.40;92.00;;;;;;5104458;28;19911;-66
2023/04/14 02:03:45;;;;;;;;;;;8.40;92.10;;;;;;5109107;28;19911;-66
2023/04/14 02:06:12;;;;;;;;;;;8.40;92.10;;;;;;5108936;28;19995;-66
2023/04/14 02:08:39;;;;;;;;;;;8.40;92.00;;;;;;5110735;28;19918;-67
2023/04/14 02:11:06;;;;;;;;;;;8.40;92.00;;;;;;5110535;28;19911;-66
2023/04/14 02:13:32;;;;;;;;;;;8.30;92.00;;;;;;5110340;28;20291;-66
2023/04/14 02:15:59;;;;;;;;;;;8.40;92.00;;;;;;5110155;28;19922;-66
2023/04/14 02:18:26;;;;;;;;;;;8.30;92.00;;;;;;5110599;28;20141;-66
2023/04/14 02:20:52;;;;;;;;;;;8.30;92.00;;;;;;5110083;28;19920;-66
2023/04/14 02:23:18;;;;;;;;;;;8.30;92.00;;;;;;5110258;28;19915;-66
2023/04/14 02:25:48;;;;;;;;;;;8.30;92.30;;;;;;5110275;28;19912;-66
2023/04/14 02:28:17;;;;;;;;;;;8.30;92.00;;;;;;5110079;28;20026;-66
2023/04/14 02:30:45;;;;;;;;;;;8.30;92.00;;;;;;5101986;28;19919;-66
2023/04/14 02:33:14;;;;;;;;;;;8.30;92.00;;;;;;5089378;28;19919;-66
2023/04/14 02:36:15;;;;;;;;;;;8.30;92.00;;;;;;5102555;27;20486;-66
2023/04/14 02:38:44;;;;;;;;;;;8.30;92.00;;;;;;5064684;28;19916;-66
2023/04/14 02:41:11;;;;;;;;;;;8.30;92.00;;;;;;5100236;28;19912;-66
2023/04/14 02:43:47;;;;;;;;;;;8.20;92.10;;;;;;5109121;28;20010;-66
2023/04/14 02:46:15;;;;;;;;;;;8.20;92.10;;;;;;5109728;28;19912;-66
2023/04/14 02:48:41;;;;;;;;;;;8.20;92.10;;;;;;5109663;28;19916;-66
2023/04/14 02:51:08;;;;;;;;;;;8.20;92.10;;;;;;5109585;28;19912;-66
2023/04/14 02:53:34;;;;;;;;;;;8.20;92.10;;;;;;5109478;28;20742;-66
2023/04/14 02:55:59;;;;;;;;;;;8.20;92.10;;;;;;5109721;28;19916;-66
2023/04/14 02:58:26;;;;;;;;;;;8.20;92.20;;;;;;5109815;28;20253;-66
2023/04/14 03:00:51;;;;;;;;;;;8.10;92.10;;;;;;5136183;27;20348;-66
2023/04/14 03:03:17;;;;;;;;;;;8.20;92.10;;;;;;5107539;28;20006;-66
2023/04/14 03:05:45;;;;;;;;;;;8.10;92.10;;;;;;5109244;28;19912;-66
2023/04/14 03:08:12;;;;;;;;;;;8.10;92.10;;;;;;5109226;28;19912;-66
2023/04/14 03:10:38;;;;;;;;;;;8.10;92.10;;;;;;5108999;28;19922;-66
2023/04/14 03:13:03;;;;;;;;;;;8.10;92.10;;;;;;5109209;28;19911;-66
2023/04/14 03:15:29;;;;;;;;;;;8.10;92.10;;;;;;5109079;28;19922;-66
2023/04/14 03:17:56;;;;;;;;;;;8.10;92.10;;;;;;5107923;28;19911;-66
2023/04/14 03:20:22;;;;;;;;;;;8.10;92.20;;;;;;5111488;27;19919;-66
2023/04/14 03:22:56;;;;;;;;;;;8.00;92.10;;;;;;5097417;27;19955;-66
2023/04/14 03:25:24;;;;;;;;;;;8.00;92.10;;;;;;5108688;28;19957;-66
2023/04/14 03:27:51;;;;;;;;;;;8.00;92.10;;;;;;5108634;28;19911;-66
2023/04/14 03:30:16;;;;;;;;;;;8.00;92.10;;;;;;5108858;28;19908;-66
2023/04/14 03:32:42;;;;;;;;;;;8.00;92.10;;;;;;5107205;28;19957;-66
2023/04/14 03:35:08;;;;;;;;;;;8.00;92.10;;;;;;5108800;28;19911;-66
2023/04/14 03:37:36;;;;;;;;;;;8.00;92.10;;;;;;5108796;28;20687;-66
2023/04/14 03:40:04;;;;;;;;;;;7.90;92.10;;;;;;5101908;28;19912;-66
2023/04/14 03:42:30;;;;;;;;;;;8.00;92.20;;;;;;5108513;28;19912;-66
2023/04/14 03:44:57;;;;;;;;;;;7.90;92.10;;;;;;5108611;28;19961;-66
2023/04/14 03:47:23;;;;;;;;;;;7.90;92.10;;;;;;5108134;28;20298;-66
2023/04/14 03:49:53;;;;;;;;;;;7.90;92.10;;;;;;5107282;28;19907;-66
2023/04/14 03:52:20;;;;;;;;;;;7.90;92.20;;;;;;5108291;28;19914;-66
2023/04/14 03:54:47;;;;;;;;;;;7.90;92.20;;;;;;5108574;28;19919;-66
2023/04/14 03:57:13;;;;;;;;;;;7.90;92.20;;;;;;5108444;28;19938;-66
2023/04/14 03:59:39;;;;;;;;;;;7.90;92.20;;;;;;5107532;28;19911;-66
2023/04/14 04:02:06;;;;;;;;;;;7.90;92.20;;;;;;5087409;28;19920;-67
2023/04/14 04:04:33;;;;;;;;;;;7.80;92.20;;;;;;5091091;28;19911;-66
2023/04/14 04:06:59;;;;;;;;;;;7.80;92.10;;;;;;5107805;28;20023;-66
2023/04/14 04:09:25;;;;;;;;;;;7.80;92.10;;;;;;5107569;28;20003;-66
2023/04/14 04:11:51;;;;;;;;;;;7.80;92.10;;;;;;5107353;28;19916;-66
2023/04/14 04:14:19;;;;;;;;;;;7.80;92.10;;;;;;5106092;28;19911;-66
2023/04/14 04:16:46;;;;;;;;;;;7.80;92.10;;;;;;5106254;28;19970;-66
2023/04/14 04:19:12;;;;;;;;;;;7.80;92.10;;;;;;5107353;28;19989;-66
2023/04/14 04:21:39;;;;;;;;;;;7.80;92.10;;;;;;5107911;28;19918;-66
2023/04/14 04:24:06;;;;;;;;;;;7.80;92.10;;;;;;5106742;28;19962;-66
2023/04/14 04:26:33;;;;;;;;;;;7.80;92.10;;;;;;5106752;28;20352;-66
2023/04/14 04:28:59;;;;;;;;;;;7.80;92.10;;;;;;5108073;28;20380;-66
2023/04/14 04:31:26;;;;;;;;;;;7.80;92.10;;;;;;5108290;28;19919;-66
2023/04/14 04:33:52;;;;;;;;;;;7.80;92.10;;;;;;5107812;28;19907;-66
2023/04/14 04:36:17;;;;;;;;;;;7.70;92.10;;;;;;5107125;28;20618;-66
2023/04/14 04:38:43;;;;;;;;;;;7.80;92.10;;;;;;5108073;28;19943;-66
2023/04/14 04:41:21;;;;;;;;;;;7.70;92.10;;;;;;5108031;28;20541;-66
2023/04/14 04:43:47;;;;;;;;;;;7.70;92.10;;;;;;5107845;28;20010;-66
2023/04/14 04:46:31;;;;;;;;;;;7.70;92.20;;;;;;5107693;28;20439;-66
2023/04/14 04:48:57;;;;;;;;;;;7.70;92.20;;;;;;5108033;28;20268;-66
2023/04/14 04:51:22;;;;;;;;;;;7.70;92.20;;;;;;5106052;28;19912;-66
2023/04/14 04:53:48;;;;;;;;;;;7.70;92.20;;;;;;5107645;28;19918;-66
2023/04/14 04:56:13;;;;;;;;;;;7.70;92.20;;;;;;5107915;28;19961;-66
2023/04/14 04:58:39;;;;;;;;;;;7.70;92.20;;;;;;5107878;28;20280;-66
2023/04/14 05:01:08;;;;;;;;;;;7.70;92.20;;;;;;5110080;28;19912;-66
2023/04/14 05:03:34;;;;;;;;;;;7.60;92.10;;;;;;5110469;27;19996;-66
2023/04/14 05:05:59;;;;;;;;;;;7.70;92.20;;;;;;5110316;28;19932;-66
2023/04/14 05:08:25;;;;;;;;;;;7.70;92.10;;;;;;5110579;28;19918;-66
2023/04/14 05:10:50;;;;;;;;;;;7.70;92.40;;;;;;5109739;28;19916;-66
2023/04/14 05:13:16;;;;;;;;;;;7.60;92.10;;;;;;5109652;28;19944;-66
2023/04/14 05:15:41;;;;;;;;;;;7.60;92.20;;;;;;5109944;28;20032;-66
2023/04/14 05:18:07;;;;;;;;;;;7.60;92.40;;;;;;5108675;28;20281;-66
2023/04/14 05:20:32;;;;;;;;;;;7.60;92.20;;;;;;5110327;28;19919;-66
2023/04/14 05:22:58;;;;;;;;;;;7.60;92.20;;;;;;5109974;28;19919;-66
2023/04/14 05:25:23;;;;;;;;;;;7.60;92.20;;;;;;5109286;28;20011;-66
2023/04/14 05:27:49;;;;;;;;;;;7.60;92.20;;;;;;5109633;28;19916;-66
2023/04/14 05:30:16;;;;;;;;;;;7.60;92.20;;;;;;5109643;28;20220;-66
2023/04/14 05:32:42;;;;;;;;;;;7.60;92.20;;;;;;5110841;28;19958;-66
2023/04/14 05:35:08;;;;;;;;;;;7.70;92.20;;;;;;5110984;28;19918;-66
2023/04/14 05:37:33;;;;;;;;;;;7.60;92.10;;;;;;5109322;28;19969;-66
2023/04/14 05:39:59;;;;;;;;;;;7.60;92.10;;;;;;5091804;28;19916;-66
2023/04/14 05:42:24;;;;;;;;;;;7.60;92.10;;;;;;5110660;28;19911;-66
2023/04/14 05:44:50;;;;;;;;;;;7.60;92.10;;;;;;5110782;28;20015;-66
2023/04/14 05:47:15;;;;;;;;;;;7.60;92.10;;;;;;5110826;28;20379;-66
2023/04/14 05:49:41;;;;;;;;;;;7.60;92.20;;;;;;5109154;28;19957;-66
2023/04/14 05:52:06;;;;;;;;;;;7.60;92.20;;;;;;5108394;28;20400;-66
2023/04/14 05:54:32;;;;;;;;;;;7.70;92.20;;;;;;5110279;28;19955;-66
2023/04/14 05:56:57;;;;;;;;;;;7.60;92.20;;;;;;5108719;28;19931;-66
2023/04/14 05:59:23;;;;;;;;;;;7.60;92.20;;;;;;5109471;28;19915;-66
2023/04/14 06:01:48;;;;;;;;;;;7.60;92.20;;;;;;5102016;28;19916;-66
2023/04/14 06:04:14;;;;;;;;;;;7.70;92.20;;;;;;5108796;28;20429;-66
2023/04/14 06:06:40;;;;;;;;;;;7.70;92.20;;;;;;5108740;28;19934;-66
2023/04/14 06:09:05;;;;;;;;;;;7.70;92.20;;;;;;5110015;28;19951;-66
2023/04/14 06:11:31;;;;;;;;;;;7.70;92.20;;;;;;5106855;28;20387;-66
2023/04/14 06:13:57;;;;;;;;;;;7.70;92.20;;;;;;5109817;28;19953;-66
2023/04/14 06:16:22;;;;;;;;;;;7.70;92.20;;;;;;5108434;28;19916;-66
2023/04/14 06:18:48;;;;;;;;;;;7.60;92.10;;;;;;5108384;28;19961;-66
2023/04/14 06:21:13;;;;;;;;;;;7.70;92.20;;;;;;5106591;28;20384;-66
2023/04/14 06:23:39;;;;;;;;;;;7.70;92.20;;;;;;5109352;28;19922;-66
2023/04/14 06:26:04;;;;;;;;;;;7.70;92.00;;;;;;5105995;27;19918;-66
2023/04/14 06:28:30;;;;;;;;;;;7.80;92.20;;;;;;5105732;27;20348;-66
2023/04/14 06:30:55;;;;;;;;;;;7.90;92.00;;;;;;5114420;27;20416;-66
2023/04/14 06:33:21;;;;;;;;;;;8.00;91.90;;;;;;5104269;27;19955;-66
2023/04/14 06:35:46;;;;;;;;;;;8.10;91.80;;;;;;5108196;27;19920;-66
2023/04/14 06:38:12;;;;;;;;;;;8.20;91.70;;;;;;5107594;28;20249;-66
2023/04/14 06:40:38;;;;;;;;;;;8.20;91.80;;;;;;5106176;28;19912;-66
2023/04/14 06:43:04;;;;;;;;;;;8.20;91.50;;;;;;5108921;28;19915;-66
2023/04/14 06:45:30;;;;;;;;;;;8.30;91.50;;;;;;5104386;27;20093;-66
2023/04/14 06:47:55;;;;;;;;;;;8.30;91.40;;;;;;5100133;28;20006;-66
2023/04/14 06:50:21;;;;;;;;;;;8.30;91.40;;;;;;5101050;28;19919;-66
2023/04/14 06:52:46;;;;;;;;;;;8.30;91.30;;;;;;5108532;28;20739;-66
2023/04/14 06:55:12;;;;;;;;;;;8.40;91.30;;;;;;5102885;27;19923;-66
2023/04/14 06:57:37;;;;;;;;;;;8.40;91.30;;;;;;5111037;27;19912;-66
2023/04/14 07:00:03;;;;;;;;;;;8.40;91.30;;;;;;5109178;27;19915;-66
2023/04/14 07:02:29;;;;;;;;;;;8.50;91.30;;;;;;5104900;28;20316;-67
2023/04/14 07:04:55;;;;;;;;;;;8.50;91.20;;;;;;5105889;28;19937;-66
2023/04/14 07:07:20;;;;;;;;;;;8.50;91.10;;;;;;5108620;28;19976;-66
2023/04/14 07:09:46;;;;;;;;;;;8.60;91.10;;;;;;5108902;28;19911;-66
2023/04/14 07:12:14;;;;;;;;;;;8.60;91.10;;;;;;5109188;28;19908;-66
2023/04/14 07:14:40;;;;;;;;;;;8.70;91.10;;;;;;5109102;28;19916;-66
2023/04/14 07:17:05;;;;;;;;;;;8.70;91.10;;;;;;5109189;28;20379;-66
2023/04/14 07:19:31;;;;;;;;;;;8.80;91.20;;;;;;5108924;28;19927;-66
2023/04/14 07:21:57;;;;;;;;;;;8.80;91.00;;;;;;5108487;28;19912;-66
2023/04/14 07:24:22;;;;;;;;;;;8.90;91.00;;;;;;5108328;28;19915;-66
2023/04/14 07:26:48;;;;;;;;;;;9.00;90.80;;;;;;5108827;28;19919;-66
2023/04/14 07:29:13;;;;;;;;;;;9.00;90.70;;;;;;5108834;28;19912;-66
2023/04/14 07:31:39;;;;;;;;;;;9.10;90.90;;;;;;5108000;28;19916;-67
2023/04/14 07:34:05;;;;;;;;;;;9.10;90.80;;;;;;5108362;28;19912;-66
2023/04/14 07:36:31;;;;;;;;;;;9.20;90.70;;;;;;5107976;28;19924;-66
2023/04/14 07:38:57;;;;;;;;;;;9.20;90.60;;;;;;5108257;28;20525;-66
2023/04/14 07:41:23;;;;;;;;;;;9.30;90.50;;;;;;5108196;28;19912;-66
2023/04/14 07:43:48;;;;;;;;;;;9.30;90.40;;;;;;5107777;28;19911;-67
2023/04/14 07:46:14;;;;;;;;;;;9.40;90.30;;;;;;5107698;28;19919;-67
2023/04/14 07:48:39;;;;;;;;;;;9.50;90.50;;;;;;5108456;28;19916;-67
2023/04/14 07:51:05;;;;;;;;;;;9.50;90.20;;;;;;5107302;28;19911;-67
2023/04/14 07:53:32;;;;;;;;;;;9.60;90.10;;;;;;5108277;28;20421;-67
2023/04/14 07:55:57;;;;;;;;;;;9.70;90.10;;;;;;5108492;28;20370;-67
2023/04/14 07:58:23;;;;;;;;;;;9.70;90.30;;;;;;5108650;27;19911;-67
2023/04/14 08:00:48;;;;;;;;;;;9.70;89.80;;;;;;5108136;28;20671;-67
2023/04/14 08:03:14;;;;;;;;;;;9.80;89.50;;;;;;5107866;28;19912;-66
2023/04/14 08:05:40;;;;;;;;;;;9.80;89.60;;;;;;5107057;28;19919;-67
2023/04/14 08:08:07;;;;;;;;;;;9.90;89.30;;;;;;5108376;28;19912;-67
2023/04/14 08:10:33;;;;;;;;;;;9.90;89.20;;;;;;5108525;28;19923;-67
2023/04/14 08:12:59;;;;;;;;;;;10.00;89.00;;;;;;5108058;28;19939;-67
2023/04/14 08:15:25;;;;;;;;;;;10.00;88.80;;;;;;5108130;28;19958;-67
2023/04/14 08:17:50;;;;;;;;;;;10.10;88.80;;;;;;5106338;28;19920;-67
2023/04/14 08:20:16;;;;;;;;;;;10.20;88.80;;;;;;5107600;28;20514;-67
2023/04/14 08:22:42;;;;;;;;;;;10.20;88.60;;;;;;5107559;28;19912;-67
2023/04/14 08:25:10;;;;;;;;;;;10.20;88.60;;;;;;5107531;28;19922;-67
2023/04/14 08:27:36;;;;;;;;;;;10.30;88.20;;;;;;5107691;28;19964;-67
2023/04/14 08:30:02;;;;;;;;;;;10.30;88.10;;;;;;5107838;28;19915;-67
2023/04/14 08:32:28;;;;;;;;;;;10.40;88.00;;;;;;5105260;28;19922;-67
2023/04/14 08:34:53;;;;;;;;;;;10.40;88.00;;;;;;5108232;28;19908;-67
2023/04/14 08:37:21;;;;;;;;;;;10.50;88.30;;;;;;5111711;28;19923;-67
2023/04/14 08:39:47;;;;;;;;;;;10.50;87.60;;;;;;5103958;28;19916;-67
2023/04/14 08:42:14;;;;;;;;;;;10.50;87.50;;;;;;5110913;27;20004;-67
2023/04/14 08:44:40;;;;;;;;;;;10.60;87.80;;;;;;5111452;28;19915;-67
2023/04/14 08:47:06;;;;;;;;;;;10.60;87.60;;;;;;5109971;28;19911;-67
2023/04/14 08:49:38;;;;;;;;;;;10.60;87.30;;;;;;5109923;28;20253;-67
2023/04/14 08:52:07;;;;;;;;;;;10.70;87.30;;;;;;5107996;28;20518;-67
2023/04/14 08:54:33;;;;;;;;;;;10.70;87.20;;;;;;5111285;28;19916;-67
2023/04/14 08:56:59;;;;;;;;;;;10.70;87.00;;;;;;5111399;28;19916;-67
2023/04/14 08:59:26;;;;;;;;;;;10.70;87.10;;;;;;5111054;27;19926;-67
2023/04/14 09:01:52;;;;;;;;;;;10.80;86.80;;;;;;5109661;28;20326;-67
2023/04/14 09:04:19;;;;;;;;;;;10.80;87.00;;;;;;5104515;27;19915;-67
2023/04/14 09:06:44;;;;;;;;;;;10.80;87.00;;;;;;5116273;27;19916;-67
2023/04/14 09:09:10;;;;;;;;;;;10.80;86.80;;;;;;5111829;27;19915;-67
2023/04/14 09:11:36;;;;;;;;;;;10.90;87.20;;;;;;5109895;28;20900;-67
2023/04/14 09:14:02;;;;;;;;;;;10.80;87.10;;;;;;5106913;28;19912;-67
2023/04/14 09:16:28;;;;;;;;;;;10.80;87.40;;;;;;5110612;28;19919;-67
2023/04/14 09:18:54;;;;;;;;;;;10.80;87.60;;;;;;5107226;28;20705;-67
2023/04/14 09:21:20;;;;;;;;;;;10.80;87.70;;;;;;5100922;27;20006;-67
2023/04/14 09:23:46;;;;;;;;;;;10.90;87.60;;;;;;5101725;28;19915;-67
2023/04/14 09:26:12;;;;;;;;;;;10.90;87.30;;;;;;5111049;28;19912;-67
2023/04/14 09:28:38;;;;;;;;;;;11.00;87.40;;;;;;5110932;28;19915;-67
2023/04/14 09:31:03;;;;;;;;;;;11.00;87.20;;;;;;5111419;28;19912;-67
2023/04/14 09:33:30;;;;;;;;;;;11.00;87.10;;;;;;5110259;28;19951;-67
2023/04/14 09:35:55;;;;;;;;;;;11.10;87.10;;;;;;5110998;28;20031;-67
2023/04/14 09:38:50;;;;;;;;;;;11.10;87.00;;;;;;5111053;28;19939;-67
2023/04/14 09:41:17;;;;;;;;;;;11.10;87.20;;;;;;5101468;28;19915;-67
2023/04/14 09:43:42;;;;;;;;;;;11.20;87.30;;;;;;5109445;28;19989;-67
2023/04/14 09:46:09;;;;;;;;;;;11.20;87.50;;;;;;5109999;27;19966;-67
2023/04/14 09:48:36;;;;;;;;;;;11.30;87.40;;;;;;5109096;28;20368;-67
2023/04/14 09:51:08;;;;;;;;;;;11.30;87.20;;;;;;5110449;28;20041;-67
2023/04/14 09:53:39;;;;;;;;;;;11.40;87.40;;;;;;5109826;28;20614;-67
2023/04/14 09:56:08;;;;;;;;;;;11.50;87.00;;;;;;5107760;28;19915;-67
2023/04/14 09:58:37;;;;;;;;;;;11.50;87.30;;;;;;5110297;28;19918;-67
2023/04/14 10:01:04;;;;;;;;;;;11.50;87.20;;;;;;5106806;28;20242;-67
2023/04/14 10:03:30;;;;;;;;;;;11.60;87.00;;;;;;5108292;28;20690;-67
2023/04/14 10:05:56;;;;;;;;;;;11.60;87.60;;;;;;5107795;28;20441;-67
2023/04/14 10:08:32;;;;;;;;;;;11.60;87.20;;;;;;5110250;28;19907;-67
2023/04/14 10:11:11;;;;;;;;;;;11.60;87.00;;;;;;5111156;28;19979;-67
2023/04/14 10:13:37;;;;;;;;;;;11.70;87.00;;;;;;5110139;28;19959;-67
2023/04/14 10:16:02;;;;;;;;;;;11.70;86.60;;;;;;5107880;28;20403;-67
2023/04/14 10:18:28;;;;;;;;;;;11.80;86.90;;;;;;5109294;28;19911;-67
2023/04/14 10:20:54;;;;;;;;;;;11.80;86.70;;;;;;5110161;28;19965;-67
2023/04/14 10:23:20;;;;;;;;;;;11.80;87.00;;;;;;5109637;28;19977;-67
2023/04/14 10:25:46;;;;;;;;;;;11.70;87.10;;;;;;5109867;28;20330;-67
2023/04/14 10:28:11;;;;;;;;;;;11.70;87.40;;;;;;5109848;28;19916;-67
2023/04/14 10:30:38;;;;;;;;;;;11.80;87.40;;;;;;5108251;28;19918;-67
2023/04/14 10:33:04;;;;;;;;;;;11.90;87.30;;;;;;5108753;28;20003;-67
2023/04/14 10:35:36;;;;;;;;;;;12.00;87.50;;;;;;5109331;28;20018;-67
2023/04/14 10:38:03;;;;;;;;;;;12.00;87.70;;;;;;5109521;28;19911;-67
2023/04/14 10:40:44;;;;;;;;;;;12.10;87.90;;;;;;5101927;28;19916;-67
2023/04/14 10:43:12;;;;;;;;;;;12.20;87.70;;;;;;5109596;28;19985;-67
2023/04/14 10:45:53;;;;;;;;;;;12.30;87.80;;;;;;5110115;28;19911;-67
2023/04/14 10:48:19;;;;;;;;;;;12.40;87.80;;;;;;5109330;28;19908;-68
2023/04/14 10:50:46;;;;;;;;;;;12.50;87.60;;;;;;5109547;28;19945;-67
2023/04/14 10:53:12;;;;;;;;;;;12.50;88.00;;;;;;5109025;28;19907;-67
2023/04/14 10:55:44;;;;;;;;;;;12.50;88.40;;;;;;5107799;28;20463;-67
2023/04/14 10:58:16;;;;;;;;;;;12.60;88.40;;;;;;5108208;27;19956;-67
2023/04/14 11:00:42;;;;;;;;;;;12.70;88.60;;;;;;5103191;28;20379;-67
2023/04/14 11:03:09;;;;;;;;;;;12.90;88.10;;;;;;5108457;28;20026;-68
2023/04/14 11:05:35;;;;;;;;;;;13.00;87.90;;;;;;5108297;28;19912;-68
2023/04/14 11:08:11;;;;;;;;;;;13.20;87.70;;;;;;5107977;28;20489;-67
2023/04/14 11:10:36;;;;;;;;;;;13.20;87.90;;;;;;5108294;28;20627;-67
2023/04/14 11:13:07;;;;;;;;;;;13.30;87.60;;;;;;5107901;28;20396;-67
2023/04/14 11:15:49;;;;;;;;;;;13.30;87.90;;;;;;5108004;28;19960;-67
2023/04/14 11:18:27;;;;;;;;;;;13.30;88.40;;;;;;5108231;28;19969;-67
2023/04/14 11:20:52;;;;;;;;;;;13.30;88.50;;;;;;5108017;28;20305;-67
2023/04/14 11:23:25;;;;;;;;;;;13.40;88.60;;;;;;5099013;28;19908;-67
2023/04/14 11:25:50;;;;;;;;;;;13.40;89.10;;;;;;5108004;28;19924;-67
2023/04/14 11:28:25;;;;;;;;;;;13.40;88.80;;;;;;5107875;28;19965;-67
2023/04/14 11:30:50;;;;;;;;;;;13.50;89.00;;;;;;5107952;28;19947;-67
2023/04/14 11:33:16;;;;;;;;;;;13.70;88.40;;;;;;5107211;28;19908;-67
2023/04/14 11:35:41;;;;;;;;;;;13.80;87.80;;;;;;5107778;28;20358;-67
2023/04/14 11:38:08;;;;;;;;;;;14.00;87.50;;;;;;5107690;28;19912;-68
2023/04/14 11:40:35;;;;;;;;;;;14.10;86.80;;;;;;5107827;28;19912;-68
2023/04/14 11:43:01;;;;;;;;;;;14.20;86.90;;;;;;5107352;28;19912;-67
2023/04/14 11:45:27;;;;;;;;;;;14.30;85.70;;;;;;5106145;28;19922;-67
2023/04/14 11:47:57;;;;;;;;;;;14.40;87.00;;;;;;5107640;28;19912;-68
2023/04/14 11:50:22;;;;;;;;;;;14.50;87.00;;;;;;5107756;28;20427;-68
2023/04/14 11:52:48;;;;;;;;;;;14.40;86.10;;;;;;5106622;28;19908;-67
2023/04/14 11:55:14;;;;;;;;;;;14.40;86.80;;;;;;5102583;28;20009;-68
2023/04/14 11:57:44;;;;;;;;;;;14.50;88.30;;;;;;5107467;28;19920;-68
2023/04/14 12:00:13;;;;;;;;;;;14.60;88.00;;;;;;5106448;28;19912;-68
2023/04/14 12:02:41;;;;;;;;;;;14.80;86.50;;;;;;5105893;28;20321;-68
2023/04/14 12:05:07;;;;;;;;;;;14.80;86.60;;;;;;5104590;28;19912;-68
2023/04/14 12:07:34;;;;;;;;;;;14.80;87.30;;;;;;5107063;28;19923;-68
2023/04/14 12:09:59;;;;;;;;;;;14.80;87.00;;;;;;5107055;28;20606;-68
2023/04/14 12:12:27;;;;;;;;;;;15.00;87.20;;;;;;5107220;28;19911;-68
2023/04/14 12:14:53;;;;;;;;;;;15.00;87.00;;;;;;5107244;28;19911;-68
2023/04/14 12:17:20;;;;;;;;;;;14.90;87.10;;;;;;5107283;28;19949;-68
2023/04/14 12:19:45;;;;;;;;;;;15.00;86.80;;;;;;5107040;28;19920;-68
2023/04/14 12:22:11;;;;;;;;;;;15.00;86.70;;;;;;5106857;28;19940;-68
2023/04/14 12:24:37;;;;;;;;;;;14.90;87.00;;;;;;5105251;28;19912;-68
2023/04/14 12:27:05;;;;;;;;;;;14.90;86.80;;;;;;5104827;28;19911;-68
2023/04/14 12:29:33;;;;;;;;;;;14.90;87.20;;;;;;5096187;28;19977;-68
2023/04/14 12:32:00;;;;;;;;;;;14.90;87.60;;;;;;5097116;28;20342;-68
2023/04/14 12:34:26;;;;;;;;;;;14.90;87.60;;;;;;5089529;28;19919;-68
2023/04/14 12:36:52;;;;;;;;;;;14.90;87.70;;;;;;5106793;28;19912;-67
2023/04/14 12:39:18;;;;;;;;;;;14.90;88.00;;;;;;5106855;28;19911;-67
2023/04/14 12:41:44;;;;;;;;;;;15.00;88.30;;;;;;5106477;28;19980;-67
2023/04/14 12:44:13;;;;;;;;;;;14.90;88.10;;;;;;5104011;28;20340;-68
2023/04/14 12:46:45;;;;;;;;;;;14.90;88.20;;;;;;5086821;28;19923;-68
2023/04/14 12:49:37;;;;;;;;;;;14.90;88.30;;;;;;5086813;28;19966;-68
2023/04/14 12:52:04;;;;;;;;;;;14.90;88.30;;;;;;5083848;28;19912;-68
2023/04/14 12:54:46;;;;;;;;;;;14.90;88.40;;;;;;5086552;28;19912;-68
2023/04/14 12:57:11;;;;;;;;;;;14.90;88.30;;;;;;5097344;28;19915;-68
2023/04/14 12:59:38;;;;;;;;;;;14.90;88.50;;;;;;5106127;28;19968;-67
2023/04/14 13:02:06;;;;;;;;;;;14.90;88.60;;;;;;5105420;28;19916;-67
2023/04/14 13:04:31;;;;;;;;;;;14.80;88.50;;;;;;5106288;28;20342;-67
2023/04/14 13:06:57;;;;;;;;;;;14.80;88.70;;;;;;5106537;28;20006;-68
2023/04/14 13:09:22;;;;;;;;;;;14.80;88.80;;;;;;5106865;28;20364;-67
2023/04/14 13:11:48;;;;;;;;;;;14.80;88.70;;;;;;5106330;28;19955;-68
2023/04/14 13:14:13;;;;;;;;;;;14.80;89.10;;;;;;5102507;28;19915;-68
2023/04/14 13:16:39;;;;;;;;;;;14.80;89.20;;;;;;5098097;28;19928;-68
2023/04/14 13:19:04;;;;;;;;;;;14.80;89.30;;;;;;5107934;28;19916;-68
2023/04/14 13:21:30;;;;;;;;;;;14.80;88.40;;;;;;5107722;28;19919;-68
2023/04/14 13:23:55;;;;;;;;;;;14.80;88.40;;;;;;5110035;28;19968;-68
2023/04/14 13:26:21;;;;;;;;;;;14.90;88.40;;;;;;5083128;28;20006;-68
2023/04/14 13:28:49;;;;;;;;;;;14.90;88.00;;;;;;5110534;27;19911;-68
2023/04/14 13:31:15;;;;;;;;;;;14.90;87.90;;;;;;5110956;28;19965;-68
2023/04/14 13:33:40;;;;;;;;;;;14.90;87.60;;;;;;5109469;28;19911;-68
2023/04/14 13:36:06;;;;;;;;;;;14.80;87.40;;;;;;5109556;28;20317;-68
2023/04/14 13:38:32;;;;;;;;;;;14.90;87.30;;;;;;5110954;28;19915;-68
2023/04/14 13:40:58;;;;;;;;;;;14.80;87.00;;;;;;5110950;28;19957;-68
2023/04/14 13:43:23;;;;;;;;;;;14.90;87.20;;;;;;5110607;28;19991;-68
2023/04/14 13:45:49;;;;;;;;;;;14.90;86.60;;;;;;5110889;28;19992;-68
2023/04/14 13:48:14;;;;;;;;;;;14.90;86.70;;;;;;5110883;28;19959;-68
2023/04/14 13:50:40;;;;;;;;;;;14.90;86.30;;;;;;5109400;28;19914;-68
2023/04/14 13:53:06;;;;;;;;;;;14.90;86.70;;;;;;5110446;28;19916;-68
2023/04/14 13:55:32;;;;;;;;;;;14.90;86.50;;;;;;5110746;28;19953;-68
2023/04/14 13:57:57;;;;;;;;;;;14.90;86.50;;;;;;5110998;28;20292;-68
2023/04/14 14:00:23;;;;;;;;;;;14.90;86.50;;;;;;5106468;28;19913;-68
2023/04/14 14:02:50;;;;;;;;;;;14.90;86.60;;;;;;5109562;28;19919;-68
2023/04/14 14:05:16;;;;;;;;;;;14.90;86.70;;;;;;5110423;28;19912;-68
2023/04/14 14:07:41;;;;;;;;;;;14.90;86.60;;;;;;5105999;28;19908;-68
2023/04/14 14:10:09;;;;;;;;;;;15.00;86.70;;;;;;5109000;28;19920;-67
2023/04/14 14:12:35;;;;;;;;;;;15.10;86.30;;;;;;5110273;28;20372;-67
2023/04/14 14:15:00;;;;;;;;;;;15.10;85.30;;;;;;5110318;28;20010;-67
2023/04/14 14:17:26;;;;;;;;;;;15.30;85.80;;;;;;5110185;28;19950;-68
2023/04/14 14:19:52;;;;;;;;;;;15.30;85.50;;;;;;5110075;28;19916;-68
2023/04/14 14:22:18;;;;;;;;;;;15.30;85.20;;;;;;5109791;28;19924;-68